createdAt,value
2022-09-09T00:00:13.978Z,22.60
2022-09-09T00:05:46.846Z,22.70
2022-09-09T00:09:14.287Z,22.60
2022-09-09T00:12:35.668Z,22.70
2022-09-09T00:15:12.864Z,22.70
2022-09-09T00:18:10.649Z,22.70
2022-09-09T00:21:03.333Z,22.50
2022-09-09T00:23:38.734Z,22.50
2022-09-09T00:26:19.760Z,22.60
2022-09-09T00:29:02.612Z,22.50
2022-09-09T00:31:33.819Z,22.40
2022-09-09T00:34:23.785Z,22.30
2022-09-09T00:37:13.840Z,22.40
2022-09-09T00:39:52.726Z,22.40
2022-09-09T00:42:47.043Z,22.40
2022-09-09T00:49:23.152Z,22.50
2022-09-09T00:51:58.682Z,22.40
2022-09-09T00:54:34.285Z,22.40
2022-09-09T01:01:03.332Z,22.50
2022-09-09T01:04:06.803Z,22.40
2022-09-09T01:07:03.363Z,22.30
2022-09-09T01:10:27.472Z,22.30
2022-09-09T01:13:08.426Z,22.30
2022-09-09T01:15:36.689Z,22.30
2022-09-09T01:18:12.993Z,22.30
2022-09-09T01:21:26.976Z,22.20
2022-09-09T01:24:08.343Z,22.20
2022-09-09T01:29:44.749Z,22.10
2022-09-09T01:32:39.767Z,22.10
2022-09-09T01:35:12.539Z,22.00
2022-09-09T01:41:13.339Z,22.00
2022-09-09T01:43:55.558Z,22.00
2022-09-09T01:46:24.461Z,22.00
2022-09-09T01:48:54.305Z,22.10
2022-09-09T01:51:22.299Z,22.10
2022-09-09T01:54:15.347Z,22.10
2022-09-09T01:57:22.224Z,22.10
2022-09-09T02:00:10.391Z,22.10
2022-09-09T02:03:02.817Z,22.00
2022-09-09T02:05:54.734Z,21.90
2022-09-09T02:12:25.033Z,21.80
2022-09-09T02:15:13.254Z,21.80
2022-09-09T02:17:54.850Z,21.80
2022-09-09T02:20:37.823Z,21.80
2022-09-09T02:23:17.126Z,21.80
2022-09-09T02:25:48.339Z,21.80
2022-09-09T02:28:34.125Z,21.80
2022-09-09T02:31:04.956Z,21.80
2022-09-09T02:33:52.444Z,21.80
2022-09-09T02:36:25.402Z,21.80
2022-09-09T02:39:05.374Z,21.80
2022-09-09T02:41:45.784Z,21.70
2022-09-09T02:44:22.791Z,21.80
2022-09-09T02:47:20.121Z,21.80
2022-09-09T02:50:12.219Z,21.80
2022-09-09T02:52:55.106Z,21.80
2022-09-09T02:56:02.351Z,21.80
2022-09-09T02:58:33.096Z,21.80
2022-09-09T03:01:05.127Z,21.70
2022-09-09T03:03:33.070Z,21.70
2022-09-09T03:06:04.004Z,21.60
2022-09-09T03:08:33.016Z,21.50
2022-09-09T03:11:03.527Z,21.60
2022-09-09T03:13:34.721Z,21.60
2022-09-09T03:16:02.439Z,21.60
2022-09-09T03:19:03.487Z,21.60
2022-09-09T03:21:34.294Z,21.60
2022-09-09T03:24:06.031Z,21.60
2022-09-09T03:26:34.142Z,21.60
2022-09-09T03:29:02.687Z,21.60
2022-09-09T03:31:31.695Z,21.70
2022-09-09T03:34:03.146Z,21.70
2022-09-09T03:36:34.178Z,21.80
2022-09-09T03:39:03.907Z,21.80
2022-09-09T03:41:32.540Z,21.70
2022-09-09T03:44:15.034Z,21.70
2022-09-09T03:50:00.725Z,21.80
2022-09-09T03:52:30.625Z,21.80
2022-09-09T03:55:02.342Z,21.80
2022-09-09T04:00:33.361Z,21.80
2022-09-09T04:03:01.370Z,21.70
2022-09-09T04:05:43.260Z,21.60
2022-09-09T04:08:12.529Z,21.50
2022-09-09T04:10:39.890Z,21.50
2022-09-09T04:13:07.170Z,21.50
2022-09-09T04:15:35.927Z,21.40
2022-09-09T04:18:03.643Z,21.40
2022-09-09T04:20:32.326Z,21.40
2022-09-09T04:22:59.768Z,21.40
2022-09-09T04:25:27.079Z,21.30
2022-09-09T04:27:59.778Z,21.20
2022-09-09T04:30:33.005Z,21.10
2022-09-09T04:36:33.731Z,21.00
2022-09-09T04:39:04.588Z,21.10
2022-09-09T04:41:34.523Z,21.10
2022-09-09T04:44:27.337Z,21.10
2022-09-09T04:46:57.088Z,21.10
2022-09-09T04:49:24.601Z,21.20
2022-09-09T04:51:56.590Z,21.20
2022-09-09T04:54:23.899Z,21.20
2022-09-09T04:57:09.370Z,21.20
2022-09-09T04:59:55.930Z,21.30
2022-09-09T05:02:23.991Z,21.30
2022-09-09T05:04:59.032Z,21.30
2022-09-09T05:07:52.162Z,21.30
2022-09-09T05:10:21.819Z,21.40
2022-09-09T05:12:54.612Z,21.40
2022-09-09T05:23:06.746Z,21.50
2022-09-09T05:25:34.573Z,21.50
2022-09-09T05:28:02.061Z,21.50
2022-09-09T05:30:29.550Z,21.60
2022-09-09T05:33:05.639Z,21.60
2022-09-09T05:36:07.062Z,21.70
2022-09-09T05:38:35.547Z,21.60
2022-09-09T05:41:09.723Z,21.70
2022-09-09T05:43:38.082Z,21.60
2022-09-09T05:46:12.205Z,21.60
2022-09-09T05:48:47.272Z,21.70
2022-09-09T05:51:18.231Z,21.90
2022-09-09T05:56:31.665Z,22.30
2022-09-09T05:59:01.197Z,22.50
2022-09-09T06:01:33.771Z,22.70
2022-09-09T06:04:03.325Z,22.70
2022-09-09T06:06:38.007Z,22.70
2022-09-09T06:09:11.320Z,22.90
2022-09-09T06:11:45.842Z,23.10
2022-09-09T06:14:19.120Z,23.20
2022-09-09T06:16:48.843Z,23.40
2022-09-09T06:19:21.533Z,23.50
2022-09-09T06:21:55.876Z,23.70
2022-09-09T06:24:35.461Z,23.90
2022-09-09T06:27:05.520Z,24.10
2022-09-09T06:29:35.828Z,24.30
2022-09-09T06:32:04.599Z,24.40
2022-09-09T06:34:39.282Z,24.60
2022-09-09T06:37:07.670Z,24.80
2022-09-09T06:39:50.281Z,25.10
2022-09-09T06:46:03.610Z,26.10
2022-09-09T06:49:00.943Z,26.70
2022-09-09T06:51:35.029Z,27.30
2022-09-09T06:54:07.280Z,27.50
2022-09-09T06:56:41.425Z,27.70
2022-09-09T06:59:13.386Z,27.80
2022-09-09T07:01:50.320Z,28.00
2022-09-09T07:04:20.124Z,27.80
2022-09-09T07:06:47.873Z,28.00
2022-09-09T07:09:21.055Z,27.90
2022-09-09T07:11:55.253Z,28.10
2022-09-09T07:14:24.323Z,28.20
2022-09-09T07:17:19.779Z,27.90
2022-09-09T07:19:48.624Z,27.80
2022-09-09T07:22:17.593Z,27.70
2022-09-09T07:24:46.029Z,27.70
2022-09-09T07:27:14.680Z,28.00
2022-09-09T07:29:42.597Z,28.20
2022-09-09T07:32:11.204Z,28.10
2022-09-09T07:34:39.386Z,27.60
2022-09-09T07:37:07.523Z,27.30
2022-09-09T07:39:36.803Z,27.50
2022-09-09T07:45:00.418Z,28.30
2022-09-09T07:47:28.071Z,28.30
2022-09-09T07:49:55.584Z,28.60
2022-09-09T07:52:28.692Z,28.50
2022-09-09T07:55:01.506Z,28.40
2022-09-09T07:57:31.978Z,28.20
2022-09-09T08:00:01.469Z,28.10
2022-09-09T08:02:30.388Z,28.10
2022-09-09T08:07:51.314Z,28.10
2022-09-09T08:11:10.848Z,28.10
2022-09-09T08:13:48.083Z,28.30
2022-09-09T08:16:46.864Z,28.50
2022-09-09T08:23:11.845Z,28.90
2022-09-09T08:25:39.226Z,28.90
2022-09-09T08:28:10.522Z,29.20
2022-09-09T08:34:11.555Z,29.00
2022-09-09T08:36:52.391Z,29.30
2022-09-09T08:39:42.554Z,29.30
2022-09-09T08:42:16.640Z,29.00
2022-09-09T08:45:41.498Z,29.40
2022-09-09T08:49:07.423Z,29.90
2022-09-09T09:08:58.854Z,31.30
2022-09-09T09:11:26.666Z,31.60
2022-09-09T09:14:26.766Z,31.60
2022-09-09T09:17:18.847Z,31.70
2022-09-09T09:19:49.366Z,31.80
2022-09-09T09:22:20.921Z,31.60
2022-09-09T09:25:13.187Z,31.20
2022-09-09T09:35:02.037Z,30.00
2022-09-09T09:44:26.788Z,30.70
2022-09-09T09:47:07.874Z,30.60
2022-09-09T09:49:36.086Z,30.00
2022-09-09T09:53:09.542Z,29.50
2022-09-09T10:00:09.909Z,29.10
2022-09-09T10:02:48.492Z,28.10
2022-09-09T10:09:55.521Z,25.10
2022-09-09T10:12:39.064Z,23.60
2022-09-09T10:15:32.949Z,22.60
2022-09-09T10:18:44.674Z,21.60
2022-09-09T10:21:34.158Z,21.40
2022-09-09T10:24:10.441Z,21.40
2022-09-09T10:27:02.415Z,21.40
2022-09-09T10:30:00.885Z,21.30
2022-09-09T10:33:19.763Z,21.00
2022-09-09T10:36:22.912Z,21.00
2022-09-09T10:39:06.809Z,21.10
2022-09-09T10:41:36.255Z,21.10
2022-09-09T10:45:06.462Z,21.10
2022-09-09T10:48:20.299Z,21.10
2022-09-09T10:51:07.936Z,20.80
2022-09-09T10:59:05.984Z,21.00
2022-09-09T11:05:24.705Z,21.20
2022-09-09T11:12:20.266Z,21.60
2022-09-09T11:18:51.887Z,22.10
2022-09-09T11:21:32.945Z,21.80
2022-09-09T11:24:11.703Z,21.80
2022-09-09T11:26:59.780Z,21.90
2022-09-09T11:34:20.993Z,22.50
2022-09-09T11:40:22.915Z,22.80
2022-09-09T11:43:31.850Z,23.00
2022-09-09T11:49:40.431Z,23.40
2022-09-09T11:53:03.566Z,23.80
2022-09-09T11:55:37.794Z,24.30
2022-09-09T11:58:33.319Z,24.80
2022-09-09T12:01:16.958Z,25.30
2022-09-09T12:04:08.294Z,25.30
2022-09-09T12:06:50.373Z,25.30
2022-09-09T12:09:41.447Z,25.60
2022-09-09T12:12:14.736Z,25.40
2022-09-09T12:14:42.080Z,25.30
2022-09-09T12:17:22.997Z,25.20
2022-09-09T12:20:20.689Z,25.40
2022-09-09T12:23:15.512Z,25.60
2022-09-09T12:26:28.068Z,25.90
2022-09-09T12:29:07.583Z,26.10
2022-09-09T12:31:58.034Z,26.20
2022-09-09T12:34:34.175Z,26.30
2022-09-09T12:37:22.386Z,26.00
2022-09-09T12:43:22.120Z,26.10
2022-09-09T12:49:39.591Z,26.30
2022-09-09T12:52:25.892Z,26.30
2022-09-09T12:54:54.734Z,26.40
2022-09-09T12:57:47.809Z,26.60
2022-09-09T13:00:25.897Z,26.70
2022-09-09T13:03:02.071Z,26.80
2022-09-09T13:05:38.718Z,26.90
2022-09-09T13:08:13.116Z,27.00
2022-09-09T13:11:02.917Z,26.90
2022-09-09T13:13:53.865Z,26.80
2022-09-09T13:16:43.024Z,26.90
2022-09-09T13:19:16.606Z,27.10
2022-09-09T13:21:45.804Z,27.20
2022-09-09T13:24:39.233Z,27.20
2022-09-09T13:27:26.429Z,27.30
2022-09-09T13:30:33.364Z,27.40
2022-09-09T13:33:13.055Z,27.40
2022-09-09T13:36:01.737Z,27.20
2022-09-09T13:39:07.020Z,27.20
2022-09-09T13:41:57.152Z,27.30
2022-09-09T13:44:36.982Z,27.40
2022-09-09T13:47:32.609Z,27.30
2022-09-09T13:50:24.488Z,27.30
2022-09-09T13:52:59.613Z,27.40
2022-09-09T13:55:30.664Z,27.50
2022-09-09T13:58:03.411Z,27.60
2022-09-09T14:00:56.663Z,27.60
2022-09-09T14:03:24.106Z,27.60
2022-09-09T14:05:51.552Z,27.70
2022-09-09T14:08:27.634Z,27.70
2022-09-09T14:11:18.503Z,27.70
2022-09-09T14:13:51.888Z,27.60
2022-09-09T14:16:25.634Z,27.50
2022-09-09T14:18:53.003Z,27.60
2022-09-09T14:24:43.885Z,27.40
2022-09-09T14:27:11.684Z,27.50
2022-09-09T14:29:43.385Z,27.40
2022-09-09T14:32:30.987Z,27.50
2022-09-09T14:35:01.674Z,27.50
2022-09-09T14:45:35.428Z,27.40
2022-09-09T14:48:46.765Z,27.20
2022-09-09T14:54:26.921Z,27.10
2022-09-09T14:56:54.497Z,26.90
2022-09-09T14:59:23.220Z,26.80
2022-09-09T15:01:50.754Z,26.80
2022-09-09T15:04:21.255Z,26.80
2022-09-09T15:06:50.780Z,26.80
2022-09-09T15:09:18.168Z,26.80
2022-09-09T15:11:46.059Z,26.80
2022-09-09T15:14:13.379Z,26.80
2022-09-09T15:16:41.412Z,26.70
2022-09-09T15:19:09.834Z,26.70
2022-09-09T15:22:02.982Z,26.70
2022-09-09T15:24:30.394Z,26.70
2022-09-09T15:27:01.405Z,26.70
2022-09-09T15:29:31.419Z,26.60
2022-09-09T15:35:53.624Z,26.60
2022-09-09T15:40:26.756Z,26.60
2022-09-09T15:42:31.459Z,26.50
2022-09-09T15:44:59.711Z,26.50
2022-09-09T15:47:29.756Z,26.50
2022-09-09T15:50:22.279Z,26.50
2022-09-09T15:52:51.772Z,26.40
2022-09-09T15:55:21.790Z,26.40
2022-09-09T15:57:49.525Z,26.40
2022-09-09T16:00:28.269Z,26.40
2022-09-09T16:02:55.622Z,26.40
2022-09-09T16:05:25.700Z,26.40
2022-09-09T16:07:53.258Z,26.30
2022-09-09T16:10:46.810Z,26.20
2022-09-09T16:13:14.416Z,26.30
2022-09-09T16:15:41.698Z,26.20
2022-09-09T16:21:20.447Z,26.00
2022-09-09T16:23:51.286Z,25.90
2022-09-09T16:26:19.307Z,25.90
2022-09-09T16:32:52.807Z,25.90
2022-09-09T16:35:21.010Z,25.80
2022-09-09T16:37:48.280Z,25.70
2022-09-09T16:40:16.642Z,25.60
2022-09-09T16:45:56.171Z,25.60
2022-09-09T16:48:24.858Z,25.60
2022-09-09T16:50:54.061Z,25.50
2022-09-09T16:53:39.909Z,25.40
2022-09-09T16:56:10.698Z,25.40
2022-09-09T16:58:41.330Z,25.20
2022-09-09T17:01:08.637Z,25.20
2022-09-09T17:03:36.052Z,25.20
2022-09-09T17:06:03.399Z,25.30
2022-09-09T17:08:31.347Z,25.20
2022-09-09T17:10:59.846Z,25.20
2022-09-09T17:13:27.345Z,25.10
2022-09-09T17:15:58.656Z,25.10
2022-09-09T17:18:29.787Z,25.00
2022-09-09T17:20:57.072Z,25.00
2022-09-09T17:23:24.961Z,24.90
2022-09-09T17:26:00.967Z,24.80
2022-09-09T17:28:32.145Z,24.80
2022-09-09T17:31:25.306Z,24.80
2022-09-09T17:33:56.447Z,24.70
2022-09-09T17:36:26.663Z,24.70
2022-09-09T17:42:04.222Z,24.60
2022-09-09T17:44:33.379Z,24.60
2022-09-09T17:47:26.616Z,24.60
2022-09-09T17:49:54.029Z,24.50
2022-09-09T17:52:23.916Z,24.50
2022-09-09T17:54:57.580Z,24.50
2022-09-09T17:57:25.993Z,24.50
2022-09-09T17:59:53.285Z,24.50
2022-09-09T18:02:20.677Z,24.50
2022-09-09T18:04:48.092Z,24.50
2022-09-09T18:07:19.469Z,24.50
2022-09-09T18:09:47.029Z,24.60
2022-09-09T18:12:14.316Z,24.50
2022-09-09T18:14:42.131Z,24.40
2022-09-09T18:17:09.754Z,24.40
2022-09-09T18:19:37.172Z,24.30
2022-09-09T18:22:06.895Z,24.30
2022-09-09T18:24:34.446Z,24.20
2022-09-09T18:27:01.835Z,24.20
2022-09-09T18:29:32.217Z,24.10
2022-09-09T18:34:40.821Z,24.10
2022-09-09T18:37:10.933Z,24.00
2022-09-09T18:39:38.271Z,23.90
2022-09-09T18:42:07.998Z,23.90
2022-09-09T18:44:59.062Z,23.80
2022-09-09T18:47:28.524Z,23.70
2022-09-09T18:50:05.498Z,23.50
2022-09-09T18:52:32.749Z,23.30
2022-09-09T18:55:02.087Z,23.30
2022-09-09T18:57:41.670Z,23.10
2022-09-09T19:00:10.316Z,23.00
2022-09-09T19:02:38.809Z,22.90
2022-09-09T19:05:06.672Z,22.90
2022-09-09T19:07:34.203Z,23.00
2022-09-09T19:10:12.827Z,23.00
2022-09-09T19:12:41.341Z,23.10
2022-09-09T19:15:09.004Z,23.00
2022-09-09T19:17:36.557Z,23.00
2022-09-09T19:20:05.231Z,22.90
2022-09-09T19:22:33.033Z,22.80
2022-09-09T19:25:03.479Z,22.80
2022-09-09T19:27:33.562Z,22.80
2022-09-09T19:30:00.784Z,22.70
2022-09-09T19:32:53.076Z,22.60
2022-09-09T19:35:15.515Z,22.60
2022-09-09T19:41:58.332Z,22.70
2022-09-09T19:44:57.394Z,22.80
2022-09-09T19:48:21.498Z,22.80
2022-09-09T19:51:09.301Z,22.80
2022-09-09T19:54:32.095Z,22.90
2022-09-09T19:57:00.960Z,22.80
2022-09-09T19:59:28.494Z,22.80
2022-09-09T20:01:59.174Z,22.80
2022-09-09T20:04:26.481Z,22.80
2022-09-09T20:06:54.825Z,22.80
2022-09-09T20:09:24.587Z,22.90
2022-09-09T20:16:03.874Z,22.90
2022-09-09T20:22:17.323Z,23.00
2022-09-09T20:25:07.462Z,23.10
2022-09-09T20:27:35.892Z,23.10
2022-09-09T20:30:03.623Z,23.10
2022-09-09T20:35:36.683Z,23.20
2022-09-09T20:38:12.272Z,23.20
2022-09-09T20:41:04.925Z,23.20
2022-09-09T20:43:33.068Z,23.10
2022-09-09T20:46:38.982Z,23.10
2022-09-09T20:51:59.904Z,23.00
2022-09-09T20:54:30.211Z,23.00
2022-09-09T21:00:03.087Z,23.00
2022-09-09T21:02:34.764Z,23.10
2022-09-09T21:05:02.094Z,23.20
2022-09-09T21:07:30.714Z,23.30
2022-09-09T21:09:58.101Z,23.20
2022-09-09T21:12:30.952Z,23.20
2022-09-09T21:14:58.253Z,23.20
2022-09-09T21:17:26.821Z,23.20
2022-09-09T21:19:58.790Z,23.10
2022-09-09T21:22:29.519Z,23.10
2022-09-09T21:25:02.377Z,23.10
2022-09-09T21:27:31.229Z,23.00
2022-09-09T21:29:58.513Z,23.00
2022-09-09T21:32:25.756Z,22.90
2022-09-09T21:34:53.011Z,22.90
2022-09-09T21:42:46.668Z,22.00
2022-09-09T21:45:14.554Z,21.60
2022-09-09T21:47:47.001Z,21.20
2022-09-09T21:50:47.586Z,21.00
2022-09-09T21:53:21.720Z,20.80
2022-09-09T21:56:11.336Z,20.60
2022-09-09T21:58:42.139Z,20.40
2022-09-09T22:01:19.868Z,20.40
2022-09-09T22:04:43.665Z,20.40
2022-09-09T22:07:33.003Z,20.30
2022-09-09T22:10:51.260Z,20.30
2022-09-09T22:14:02.322Z,20.30
2022-09-09T22:19:36.344Z,20.40
2022-09-09T22:22:09.016Z,20.40
2022-09-09T22:24:43.781Z,20.50
2022-09-09T22:27:13.868Z,20.50
2022-09-09T22:29:43.765Z,20.60
2022-09-09T22:32:11.664Z,20.60
2022-09-09T22:35:09.642Z,20.70
2022-09-09T22:37:43.442Z,20.60
2022-09-09T22:47:15.242Z,20.50
2022-09-09T22:50:51.440Z,20.60
2022-09-09T22:53:22.859Z,20.60
2022-09-09T22:56:01.209Z,20.60
2022-09-09T22:58:33.386Z,20.50
2022-09-09T23:01:22.742Z,20.60
2022-09-09T23:04:47.323Z,20.60
2022-09-09T23:11:40.913Z,20.50
2022-09-09T23:21:11.260Z,20.40
2022-09-09T23:29:24.192Z,20.50
2022-09-09T23:40:06.787Z,20.70
2022-09-09T23:43:42.518Z,20.70
2022-09-09T23:59:03.727Z,20.80
